sensor_id;sensor_type;location;lat;lon;timestamp;P1;durP1;ratioP1;P2;durP2;ratioP2
37641;SDS011;23486;51.956;5.888;2023-11-22T00:00:03;29.30;;;15.57;;
37641;SDS011;23486;51.956;5.888;2023-11-22T00:02:29;30.75;;;16.73;;
37641;SDS011;23486;51.956;5.888;2023-11-22T00:04:55;27.98;;;14.75;;
37641;SDS011;23486;51.956;5.888;2023-11-22T00:07:21;24.70;;;13.38;;
37641;SDS011;23486;51.956;5.888;2023-11-22T00:09:47;21.95;;;13.43;;
37641;SDS011;23486;51.956;5.888;2023-11-22T00:12:13;28.92;;;15.27;;
37641;SDS011;23486;51.956;5.888;2023-11-22T00:14:42;29.30;;;15.25;;
37641;SDS011;23486;51.956;5.888;2023-11-22T00:17:08;22.25;;;13.18;;
37641;SDS011;23486;51.956;5.888;2023-11-22T00:19:35;23.67;;;13.45;;
37641;SDS011;23486;51.956;5.888;2023-11-22T00:22:01;24.50;;;14.50;;
37641;SDS011;23486;51.956;5.888;2023-11-22T00:24:35;23.10;;;13.60;;
37641;SDS011;23486;51.956;5.888;2023-11-22T00:27:01;30.35;;;17.77;;
37641;SDS011;23486;51.956;5.888;2023-11-22T00:29:26;27.13;;;14.82;;
37641;SDS011;23486;51.956;5.888;2023-11-22T00:31:52;29.10;;;16.35;;
37641;SDS011;23486;51.956;5.888;2023-11-22T00:34:18;29.42;;;17.30;;
37641;SDS011;23486;51.956;5.888;2023-11-22T00:36:44;29.15;;;16.35;;
37641;SDS011;23486;51.956;5.888;2023-11-22T00:39:10;29.30;;;16.55;;
37641;SDS011;23486;51.956;5.888;2023-11-22T00:41:38;27.00;;;15.30;;
37641;SDS011;23486;51.956;5.888;2023-11-22T00:44:04;26.63;;;15.55;;
37641;SDS011;23486;51.956;5.888;2023-11-22T00:46:31;25.95;;;14.02;;
37641;SDS011;23486;51.956;5.888;2023-11-22T00:48:57;25.33;;;14.57;;
37641;SDS011;23486;51.956;5.888;2023-11-22T00:51:23;26.10;;;15.35;;
37641;SDS011;23486;51.956;5.888;2023-11-22T00:53:49;23.08;;;13.23;;
37641;SDS011;23486;51.956;5.888;2023-11-22T00:56:16;22.88;;;13.32;;
37641;SDS011;23486;51.956;5.888;2023-11-22T00:58:42;23.73;;;15.48;;
37641;SDS011;23486;51.956;5.888;2023-11-22T01:01:08;27.45;;;16.30;;
37641;SDS011;23486;51.956;5.888;2023-11-22T01:03:34;29.58;;;16.77;;
37641;SDS011;23486;51.956;5.888;2023-11-22T01:06:03;26.98;;;14.77;;
37641;SDS011;23486;51.956;5.888;2023-11-22T01:08:31;24.50;;;13.65;;
37641;SDS011;23486;51.956;5.888;2023-11-22T01:10:57;22.45;;;12.45;;
37641;SDS011;23486;51.956;5.888;2023-11-22T01:13:23;22.90;;;12.73;;
37641;SDS011;23486;51.956;5.888;2023-11-22T01:15:49;18.98;;;10.70;;
37641;SDS011;23486;51.956;5.888;2023-11-22T01:18:15;19.92;;;11.32;;
37641;SDS011;23486;51.956;5.888;2023-11-22T01:20:41;21.15;;;11.30;;
37641;SDS011;23486;51.956;5.888;2023-11-22T01:23:07;19.50;;;9.98;;
37641;SDS011;23486;51.956;5.888;2023-11-22T01:25:33;22.10;;;11.93;;
37641;SDS011;23486;51.956;5.888;2023-11-22T01:27:59;18.52;;;10.35;;
37641;SDS011;23486;51.956;5.888;2023-11-22T01:30:25;20.98;;;11.43;;
37641;SDS011;23486;51.956;5.888;2023-11-22T01:32:53;20.20;;;11.48;;
37641;SDS011;23486;51.956;5.888;2023-11-22T01:35:20;19.27;;;10.77;;
37641;SDS011;23486;51.956;5.888;2023-11-22T01:37:46;25.70;;;11.95;;
37641;SDS011;23486;51.956;5.888;2023-11-22T01:40:12;25.67;;;13.15;;
37641;SDS011;23486;51.956;5.888;2023-11-22T01:42:38;20.70;;;11.88;;
37641;SDS011;23486;51.956;5.888;2023-11-22T01:45:06;21.45;;;11.90;;
37641;SDS011;23486;51.956;5.888;2023-11-22T01:47:32;21.75;;;12.10;;
37641;SDS011;23486;51.956;5.888;2023-11-22T01:49:58;22.35;;;12.35;;
37641;SDS011;23486;51.956;5.888;2023-11-22T01:52:24;23.42;;;12.00;;
37641;SDS011;23486;51.956;5.888;2023-11-22T01:54:51;19.55;;;10.85;;
37641;SDS011;23486;51.956;5.888;2023-11-22T01:57:17;17.10;;;10.57;;
37641;SDS011;23486;51.956;5.888;2023-11-22T01:59:43;18.90;;;10.48;;
37641;SDS011;23486;51.956;5.888;2023-11-22T02:02:10;19.63;;;10.27;;
37641;SDS011;23486;51.956;5.888;2023-11-22T02:04:36;19.88;;;10.65;;
37641;SDS011;23486;51.956;5.888;2023-11-22T02:07:02;19.35;;;10.02;;
37641;SDS011;23486;51.956;5.888;2023-11-22T02:09:28;17.73;;;10.32;;
37641;SDS011;23486;51.956;5.888;2023-11-22T02:11:54;15.85;;;8.95;;
37641;SDS011;23486;51.956;5.888;2023-11-22T02:14:20;17.10;;;8.70;;
37641;SDS011;23486;51.956;5.888;2023-11-22T02:16:47;19.45;;;10.05;;
37641;SDS011;23486;51.956;5.888;2023-11-22T02:19:14;19.30;;;9.95;;
37641;SDS011;23486;51.956;5.888;2023-11-22T02:21:41;19.95;;;10.77;;
37641;SDS011;23486;51.956;5.888;2023-11-22T02:24:07;18.85;;;8.85;;
37641;SDS011;23486;51.956;5.888;2023-11-22T02:26:33;19.60;;;9.65;;
37641;SDS011;23486;51.956;5.888;2023-11-22T02:28:59;17.13;;;9.45;;
37641;SDS011;23486;51.956;5.888;2023-11-22T02:31:25;15.82;;;8.95;;
37641;SDS011;23486;51.956;5.888;2023-11-22T02:33:52;16.90;;;8.65;;
37641;SDS011;23486;51.956;5.888;2023-11-22T02:36:20;15.55;;;7.97;;
37641;SDS011;23486;51.956;5.888;2023-11-22T02:38:47;16.35;;;7.90;;
37641;SDS011;23486;51.956;5.888;2023-11-22T02:41:13;15.00;;;7.65;;
37641;SDS011;23486;51.956;5.888;2023-11-22T02:43:39;17.23;;;9.57;;
37641;SDS011;23486;51.956;5.888;2023-11-22T02:46:06;18.05;;;8.95;;
37641;SDS011;23486;51.956;5.888;2023-11-22T02:48:33;20.02;;;8.27;;
37641;SDS011;23486;51.956;5.888;2023-11-22T02:50:59;18.67;;;9.43;;
37641;SDS011;23486;51.956;5.888;2023-11-22T02:53:25;13.40;;;7.28;;
37641;SDS011;23486;51.956;5.888;2023-11-22T02:55:52;19.55;;;9.77;;
37641;SDS011;23486;51.956;5.888;2023-11-22T02:58:20;19.15;;;11.00;;
37641;SDS011;23486;51.956;5.888;2023-11-22T03:00:46;17.52;;;9.60;;
37641;SDS011;23486;51.956;5.888;2023-11-22T03:03:13;21.55;;;10.38;;
37641;SDS011;23486;51.956;5.888;2023-11-22T03:05:40;27.17;;;13.02;;
37641;SDS011;23486;51.956;5.888;2023-11-22T03:08:06;26.90;;;13.20;;
37641;SDS011;23486;51.956;5.888;2023-11-22T03:10:35;26.75;;;12.73;;
37641;SDS011;23486;51.956;5.888;2023-11-22T03:13:01;23.50;;;12.77;;
37641;SDS011;23486;51.956;5.888;2023-11-22T03:15:27;22.75;;;12.02;;
37641;SDS011;23486;51.956;5.888;2023-11-22T03:17:53;23.60;;;11.45;;
37641;SDS011;23486;51.956;5.888;2023-11-22T03:20:19;25.95;;;11.73;;
37641;SDS011;23486;51.956;5.888;2023-11-22T03:22:46;20.30;;;10.18;;
37641;SDS011;23486;51.956;5.888;2023-11-22T03:25:15;20.70;;;10.38;;
37641;SDS011;23486;51.956;5.888;2023-11-22T03:27:41;20.42;;;10.48;;
37641;SDS011;23486;51.956;5.888;2023-11-22T03:30:07;20.65;;;10.23;;
37641;SDS011;23486;51.956;5.888;2023-11-22T03:32:37;22.98;;;11.90;;
37641;SDS011;23486;51.956;5.888;2023-11-22T03:35:05;23.45;;;11.18;;
37641;SDS011;23486;51.956;5.888;2023-11-22T03:37:31;27.58;;;11.98;;
37641;SDS011;23486;51.956;5.888;2023-11-22T03:39:57;21.10;;;11.32;;
37641;SDS011;23486;51.956;5.888;2023-11-22T03:42:23;24.50;;;11.68;;
37641;SDS011;23486;51.956;5.888;2023-11-22T03:44:49;25.75;;;11.57;;
37641;SDS011;23486;51.956;5.888;2023-11-22T03:47:17;21.25;;;10.32;;
37641;SDS011;23486;51.956;5.888;2023-11-22T03:49:43;21.70;;;10.38;;
37641;SDS011;23486;51.956;5.888;2023-11-22T03:52:10;24.20;;;12.05;;
37641;SDS011;23486;51.956;5.888;2023-11-22T03:54:36;28.05;;;12.70;;
37641;SDS011;23486;51.956;5.888;2023-11-22T03:57:02;22.83;;;10.80;;
37641;SDS011;23486;51.956;5.888;2023-11-22T03:59:28;24.17;;;11.63;;
37641;SDS011;23486;51.956;5.888;2023-11-22T04:01:55;19.73;;;10.68;;
37641;SDS011;23486;51.956;5.888;2023-11-22T04:04:21;23.58;;;10.18;;
37641;SDS011;23486;51.956;5.888;2023-11-22T04:06:47;22.45;;;9.88;;
37641;SDS011;23486;51.956;5.888;2023-11-22T04:09:13;18.55;;;8.77;;
37641;SDS011;23486;51.956;5.888;2023-11-22T04:11:39;18.60;;;8.88;;
37641;SDS011;23486;51.956;5.888;2023-11-22T04:14:05;20.65;;;10.07;;
37641;SDS011;23486;51.956;5.888;2023-11-22T04:16:31;17.85;;;8.43;;
37641;SDS011;23486;51.956;5.888;2023-11-22T04:18:57;17.77;;;8.77;;
37641;SDS011;23486;51.956;5.888;2023-11-22T04:21:23;19.90;;;9.65;;
37641;SDS011;23486;51.956;5.888;2023-11-22T04:23:49;18.35;;;9.68;;
37641;SDS011;23486;51.956;5.888;2023-11-22T04:26:16;15.05;;;7.82;;
37641;SDS011;23486;51.956;5.888;2023-11-22T04:28:42;16.13;;;8.15;;
37641;SDS011;23486;51.956;5.888;2023-11-22T04:31:08;16.95;;;8.23;;
37641;SDS011;23486;51.956;5.888;2023-11-22T04:33:34;15.85;;;7.38;;
37641;SDS011;23486;51.956;5.888;2023-11-22T04:36:01;13.27;;;6.75;;
37641;SDS011;23486;51.956;5.888;2023-11-22T04:38:27;16.95;;;7.68;;
37641;SDS011;23486;51.956;5.888;2023-11-22T04:40:53;15.20;;;7.20;;
37641;SDS011;23486;51.956;5.888;2023-11-22T04:43:19;14.73;;;7.30;;
37641;SDS011;23486;51.956;5.888;2023-11-22T04:45:45;13.43;;;6.32;;
37641;SDS011;23486;51.956;5.888;2023-11-22T04:48:11;15.43;;;7.65;;
37641;SDS011;23486;51.956;5.888;2023-11-22T04:50:39;15.95;;;6.93;;
37641;SDS011;23486;51.956;5.888;2023-11-22T04:53:05;13.07;;;6.45;;
37641;SDS011;23486;51.956;5.888;2023-11-22T04:55:31;12.65;;;6.60;;
37641;SDS011;23486;51.956;5.888;2023-11-22T04:57:57;17.13;;;7.85;;
37641;SDS011;23486;51.956;5.888;2023-11-22T05:00:24;14.30;;;7.10;;
37641;SDS011;23486;51.956;5.888;2023-11-22T05:02:50;10.90;;;6.25;;
37641;SDS011;23486;51.956;5.888;2023-11-22T05:05:16;14.80;;;7.15;;
37641;SDS011;23486;51.956;5.888;2023-11-22T05:07:41;12.80;;;6.38;;
37641;SDS011;23486;51.956;5.888;2023-11-22T05:10:09;14.35;;;6.97;;
37641;SDS011;23486;51.956;5.888;2023-11-22T05:12:35;13.55;;;6.50;;
37641;SDS011;23486;51.956;5.888;2023-11-22T05:15:02;16.63;;;7.93;;
37641;SDS011;23486;51.956;5.888;2023-11-22T05:17:28;15.27;;;7.22;;
37641;SDS011;23486;51.956;5.888;2023-11-22T05:19:55;21.05;;;8.10;;
37641;SDS011;23486;51.956;5.888;2023-11-22T05:22:21;14.25;;;7.30;;
37641;SDS011;23486;51.956;5.888;2023-11-22T05:24:47;14.75;;;7.30;;
37641;SDS011;23486;51.956;5.888;2023-11-22T05:27:13;14.30;;;7.32;;
37641;SDS011;23486;51.956;5.888;2023-11-22T05:29:39;17.88;;;7.32;;
37641;SDS011;23486;51.956;5.888;2023-11-22T05:32:05;18.88;;;7.88;;
37641;SDS011;23486;51.956;5.888;2023-11-22T05:34:31;14.52;;;6.95;;
37641;SDS011;23486;51.956;5.888;2023-11-22T05:36:58;18.88;;;8.48;;
37641;SDS011;23486;51.956;5.888;2023-11-22T05:39:24;17.65;;;8.07;;
37641;SDS011;23486;51.956;5.888;2023-11-22T05:41:50;15.13;;;7.18;;
37641;SDS011;23486;51.956;5.888;2023-11-22T05:44:16;17.20;;;8.07;;
37641;SDS011;23486;51.956;5.888;2023-11-22T05:46:42;15.70;;;7.43;;
37641;SDS011;23486;51.956;5.888;2023-11-22T05:49:08;16.85;;;8.02;;
37641;SDS011;23486;51.956;5.888;2023-11-22T05:51:35;18.27;;;8.43;;
37641;SDS011;23486;51.956;5.888;2023-11-22T05:54:02;18.48;;;8.73;;
37641;SDS011;23486;51.956;5.888;2023-11-22T05:56:28;21.20;;;9.88;;
37641;SDS011;23486;51.956;5.888;2023-11-22T05:58:54;19.98;;;9.30;;
37641;SDS011;23486;51.956;5.888;2023-11-22T06:01:20;18.13;;;9.40;;
37641;SDS011;23486;51.956;5.888;2023-11-22T06:03:46;20.80;;;9.90;;
37641;SDS011;23486;51.956;5.888;2023-11-22T06:06:13;18.88;;;7.80;;
37641;SDS011;23486;51.956;5.888;2023-11-22T06:08:39;22.38;;;10.00;;
37641;SDS011;23486;51.956;5.888;2023-11-22T06:11:06;18.98;;;8.70;;
37641;SDS011;23486;51.956;5.888;2023-11-22T06:13:32;21.50;;;9.68;;
37641;SDS011;23486;51.956;5.888;2023-11-22T06:15:58;18.80;;;9.43;;
37641;SDS011;23486;51.956;5.888;2023-11-22T06:18:25;20.02;;;9.20;;
37641;SDS011;23486;51.956;5.888;2023-11-22T06:20:55;20.88;;;8.52;;
37641;SDS011;23486;51.956;5.888;2023-11-22T06:23:21;19.58;;;9.55;;
37641;SDS011;23486;51.956;5.888;2023-11-22T06:25:47;17.92;;;8.95;;
37641;SDS011;23486;51.956;5.888;2023-11-22T06:28:13;21.23;;;9.32;;
37641;SDS011;23486;51.956;5.888;2023-11-22T06:30:39;18.45;;;8.98;;
37641;SDS011;23486;51.956;5.888;2023-11-22T06:33:05;18.88;;;9.20;;
37641;SDS011;23486;51.956;5.888;2023-11-22T06:35:32;21.67;;;10.02;;
37641;SDS011;23486;51.956;5.888;2023-11-22T06:37:58;23.27;;;10.65;;
37641;SDS011;23486;51.956;5.888;2023-11-22T06:40:24;27.77;;;11.82;;
37641;SDS011;23486;51.956;5.888;2023-11-22T06:42:50;27.80;;;13.60;;
37641;SDS011;23486;51.956;5.888;2023-11-22T06:45:16;34.03;;;13.60;;
37641;SDS011;23486;51.956;5.888;2023-11-22T06:47:43;31.58;;;13.25;;
37641;SDS011;23486;51.956;5.888;2023-11-22T06:50:10;39.72;;;15.02;;
37641;SDS011;23486;51.956;5.888;2023-11-22T06:52:37;43.72;;;18.05;;
37641;SDS011;23486;51.956;5.888;2023-11-22T06:55:03;47.90;;;19.05;;
37641;SDS011;23486;51.956;5.888;2023-11-22T06:57:29;41.97;;;18.65;;
37641;SDS011;23486;51.956;5.888;2023-11-22T06:59:55;36.95;;;15.65;;
37641;SDS011;23486;51.956;5.888;2023-11-22T07:02:21;31.60;;;12.93;;
37641;SDS011;23486;51.956;5.888;2023-11-22T07:04:47;35.00;;;14.52;;
37641;SDS011;23486;51.956;5.888;2023-11-22T07:07:13;26.33;;;12.70;;
37641;SDS011;23486;51.956;5.888;2023-11-22T07:09:42;26.65;;;12.65;;
37641;SDS011;23486;51.956;5.888;2023-11-22T07:12:09;24.63;;;11.55;;
37641;SDS011;23486;51.956;5.888;2023-11-22T07:14:35;24.02;;;12.38;;
37641;SDS011;23486;51.956;5.888;2023-11-22T07:17:01;26.08;;;11.77;;
37641;SDS011;23486;51.956;5.888;2023-11-22T07:19:27;23.15;;;11.15;;
37641;SDS011;23486;51.956;5.888;2023-11-22T07:21:53;24.08;;;11.00;;
37641;SDS011;23486;51.956;5.888;2023-11-22T07:24:19;20.05;;;10.88;;
37641;SDS011;23486;51.956;5.888;2023-11-22T07:26:46;20.80;;;10.05;;
37641;SDS011;23486;51.956;5.888;2023-11-22T07:29:12;24.85;;;11.52;;
37641;SDS011;23486;51.956;5.888;2023-11-22T07:31:38;22.55;;;10.30;;
37641;SDS011;23486;51.956;5.888;2023-11-22T07:34:04;20.60;;;10.07;;
37641;SDS011;23486;51.956;5.888;2023-11-22T07:36:31;22.13;;;9.93;;
37641;SDS011;23486;51.956;5.888;2023-11-22T07:38:57;24.75;;;9.93;;
37641;SDS011;23486;51.956;5.888;2023-11-22T07:41:24;23.60;;;10.68;;
37641;SDS011;23486;51.956;5.888;2023-11-22T07:43:51;26.58;;;12.13;;
37641;SDS011;23486;51.956;5.888;2023-11-22T07:46:18;26.35;;;11.93;;
37641;SDS011;23486;51.956;5.888;2023-11-22T07:48:45;26.05;;;11.95;;
37641;SDS011;23486;51.956;5.888;2023-11-22T07:51:12;22.83;;;11.25;;
37641;SDS011;23486;51.956;5.888;2023-11-22T07:53:41;26.95;;;10.93;;
37641;SDS011;23486;51.956;5.888;2023-11-22T07:56:08;24.58;;;12.02;;
37641;SDS011;23486;51.956;5.888;2023-11-22T07:58:36;20.58;;;11.68;;
37641;SDS011;23486;51.956;5.888;2023-11-22T08:01:02;28.42;;;13.25;;
37641;SDS011;23486;51.956;5.888;2023-11-22T08:03:38;33.47;;;13.27;;
37641;SDS011;23486;51.956;5.888;2023-11-22T08:06:05;27.33;;;11.35;;
37641;SDS011;23486;51.956;5.888;2023-11-22T08:08:33;37.28;;;14.98;;
37641;SDS011;23486;51.956;5.888;2023-11-22T08:11:03;33.38;;;15.88;;
37641;SDS011;23486;51.956;5.888;2023-11-22T08:13:29;35.30;;;15.15;;
37641;SDS011;23486;51.956;5.888;2023-11-22T08:15:55;28.90;;;14.35;;
37641;SDS011;23486;51.956;5.888;2023-11-22T08:18:22;34.88;;;16.33;;
37641;SDS011;23486;51.956;5.888;2023-11-22T08:20:48;34.70;;;15.80;;
37641;SDS011;23486;51.956;5.888;2023-11-22T08:23:14;32.25;;;15.68;;
37641;SDS011;23486;51.956;5.888;2023-11-22T08:25:40;33.95;;;15.48;;
37641;SDS011;23486;51.956;5.888;2023-11-22T08:28:06;35.60;;;16.23;;
37641;SDS011;23486;51.956;5.888;2023-11-22T08:30:33;36.60;;;17.02;;
37641;SDS011;23486;51.956;5.888;2023-11-22T08:33:00;40.15;;;17.80;;
37641;SDS011;23486;51.956;5.888;2023-11-22T08:35:27;38.67;;;17.85;;
37641;SDS011;23486;51.956;5.888;2023-11-22T08:37:53;39.13;;;18.30;;
37641;SDS011;23486;51.956;5.888;2023-11-22T08:40:22;38.20;;;19.88;;
37641;SDS011;23486;51.956;5.888;2023-11-22T08:42:48;38.53;;;18.98;;
37641;SDS011;23486;51.956;5.888;2023-11-22T08:45:14;42.45;;;19.45;;
37641;SDS011;23486;51.956;5.888;2023-11-22T08:47:40;36.05;;;18.13;;
37641;SDS011;23486;51.956;5.888;2023-11-22T08:50:07;42.55;;;19.95;;
37641;SDS011;23486;51.956;5.888;2023-11-22T08:52:33;40.50;;;20.02;;
37641;SDS011;23486;51.956;5.888;2023-11-22T08:55:01;41.33;;;19.45;;
37641;SDS011;23486;51.956;5.888;2023-11-22T08:57:27;38.22;;;19.10;;
37641;SDS011;23486;51.956;5.888;2023-11-22T08:59:53;34.80;;;17.05;;
37641;SDS011;23486;51.956;5.888;2023-11-22T09:02:19;38.45;;;19.58;;
37641;SDS011;23486;51.956;5.888;2023-11-22T09:04:47;36.17;;;17.92;;
37641;SDS011;23486;51.956;5.888;2023-11-22T09:07:13;33.90;;;17.35;;
37641;SDS011;23486;51.956;5.888;2023-11-22T09:09:43;37.42;;;18.90;;
37641;SDS011;23486;51.956;5.888;2023-11-22T09:12:09;39.78;;;18.75;;
37641;SDS011;23486;51.956;5.888;2023-11-22T09:14:41;40.17;;;18.38;;
37641;SDS011;23486;51.956;5.888;2023-11-22T09:17:07;41.13;;;19.60;;
37641;SDS011;23486;51.956;5.888;2023-11-22T09:19:34;33.92;;;17.00;;
37641;SDS011;23486;51.956;5.888;2023-11-22T09:22:01;36.55;;;19.10;;
37641;SDS011;23486;51.956;5.888;2023-11-22T09:24:27;34.08;;;18.75;;
37641;SDS011;23486;51.956;5.888;2023-11-22T09:26:53;35.25;;;18.80;;
37641;SDS011;23486;51.956;5.888;2023-11-22T09:29:19;36.03;;;18.83;;
37641;SDS011;23486;51.956;5.888;2023-11-22T09:31:45;34.65;;;17.73;;
37641;SDS011;23486;51.956;5.888;2023-11-22T09:34:12;35.75;;;17.85;;
37641;SDS011;23486;51.956;5.888;2023-11-22T09:36:38;34.40;;;19.05;;
37641;SDS011;23486;51.956;5.888;2023-11-22T09:39:04;31.00;;;17.05;;
37641;SDS011;23486;51.956;5.888;2023-11-22T09:41:36;36.42;;;17.80;;
37641;SDS011;23486;51.956;5.888;2023-11-22T09:44:02;34.72;;;17.95;;
37641;SDS011;23486;51.956;5.888;2023-11-22T09:46:29;35.40;;;18.70;;
37641;SDS011;23486;51.956;5.888;2023-11-22T09:48:56;32.05;;;17.02;;
37641;SDS011;23486;51.956;5.888;2023-11-22T09:51:32;36.78;;;18.48;;
37641;SDS011;23486;51.956;5.888;2023-11-22T09:53:59;37.80;;;19.63;;
37641;SDS011;23486;51.956;5.888;2023-11-22T09:56:29;38.80;;;18.90;;
37641;SDS011;23486;51.956;5.888;2023-11-22T09:58:57;34.58;;;17.58;;
37641;SDS011;23486;51.956;5.888;2023-11-22T10:01:25;29.50;;;15.88;;
37641;SDS011;23486;51.956;5.888;2023-11-22T10:03:53;33.67;;;17.25;;
37641;SDS011;23486;51.956;5.888;2023-11-22T10:06:19;34.40;;;17.48;;
37641;SDS011;23486;51.956;5.888;2023-11-22T10:08:46;34.90;;;17.25;;
37641;SDS011;23486;51.956;5.888;2023-11-22T10:11:14;31.92;;;15.88;;
37641;SDS011;23486;51.956;5.888;2023-11-22T10:13:42;31.50;;;17.27;;
37641;SDS011;23486;51.956;5.888;2023-11-22T10:16:11;35.40;;;18.52;;
37641;SDS011;23486;51.956;5.888;2023-11-22T10:18:41;33.38;;;16.10;;
37641;SDS011;23486;51.956;5.888;2023-11-22T10:21:18;33.25;;;18.13;;
37641;SDS011;23486;51.956;5.888;2023-11-22T10:23:45;31.52;;;17.38;;
37641;SDS011;23486;51.956;5.888;2023-11-22T10:26:12;32.70;;;18.70;;
37641;SDS011;23486;51.956;5.888;2023-11-22T10:28:41;31.25;;;17.17;;
37641;SDS011;23486;51.956;5.888;2023-11-22T10:31:08;35.10;;;19.08;;
37641;SDS011;23486;51.956;5.888;2023-11-22T10:33:43;31.08;;;17.13;;
37641;SDS011;23486;51.956;5.888;2023-11-22T10:36:09;31.48;;;18.02;;
37641;SDS011;23486;51.956;5.888;2023-11-22T10:38:37;34.95;;;20.33;;
37641;SDS011;23486;51.956;5.888;2023-11-22T10:41:09;46.75;;;22.23;;
37641;SDS011;23486;51.956;5.888;2023-11-22T10:43:35;32.70;;;18.60;;
37641;SDS011;23486;51.956;5.888;2023-11-22T10:46:02;34.85;;;18.67;;
37641;SDS011;23486;51.956;5.888;2023-11-22T10:48:29;31.65;;;18.33;;
37641;SDS011;23486;51.956;5.888;2023-11-22T10:50:57;34.17;;;19.48;;
37641;SDS011;23486;51.956;5.888;2023-11-22T10:53:29;30.25;;;17.40;;
37641;SDS011;23486;51.956;5.888;2023-11-22T10:55:59;27.67;;;16.63;;
37641;SDS011;23486;51.956;5.888;2023-11-22T10:58:27;26.83;;;14.93;;
37641;SDS011;23486;51.956;5.888;2023-11-22T11:00:53;28.48;;;14.95;;
37641;SDS011;23486;51.956;5.888;2023-11-22T11:03:20;27.70;;;15.35;;
37641;SDS011;23486;51.956;5.888;2023-11-22T11:06:08;25.17;;;15.40;;
37641;SDS011;23486;51.956;5.888;2023-11-22T11:08:33;24.67;;;13.55;;
37641;SDS011;23486;51.956;5.888;2023-11-22T11:11:01;26.52;;;15.82;;
37641;SDS011;23486;51.956;5.888;2023-11-22T11:13:28;25.55;;;13.55;;
37641;SDS011;23486;51.956;5.888;2023-11-22T11:15:55;25.48;;;15.18;;
37641;SDS011;23486;51.956;5.888;2023-11-22T11:18:22;26.85;;;16.05;;
37641;SDS011;23486;51.956;5.888;2023-11-22T11:20:49;31.00;;;15.45;;
37641;SDS011;23486;51.956;5.888;2023-11-22T11:23:22;27.35;;;15.88;;
37641;SDS011;23486;51.956;5.888;2023-11-22T11:25:50;27.83;;;15.45;;
37641;SDS011;23486;51.956;5.888;2023-11-22T11:28:16;26.15;;;16.05;;
37641;SDS011;23486;51.956;5.888;2023-11-22T11:30:45;29.75;;;16.17;;
37641;SDS011;23486;51.956;5.888;2023-11-22T11:33:13;27.13;;;16.45;;
37641;SDS011;23486;51.956;5.888;2023-11-22T11:35:43;32.95;;;17.23;;
37641;SDS011;23486;51.956;5.888;2023-11-22T11:38:14;32.17;;;16.98;;
37641;SDS011;23486;51.956;5.888;2023-11-22T11:40:41;31.77;;;16.63;;
37641;SDS011;23486;51.956;5.888;2023-11-22T11:43:08;30.60;;;18.20;;
37641;SDS011;23486;51.956;5.888;2023-11-22T11:45:37;32.92;;;20.75;;
37641;SDS011;23486;51.956;5.888;2023-11-22T11:48:04;31.00;;;18.77;;
37641;SDS011;23486;51.956;5.888;2023-11-22T11:50:31;30.70;;;17.30;;
37641;SDS011;23486;51.956;5.888;2023-11-22T11:52:57;30.25;;;18.08;;
37641;SDS011;23486;51.956;5.888;2023-11-22T11:55:23;32.67;;;17.20;;
37641;SDS011;23486;51.956;5.888;2023-11-22T11:57:52;32.20;;;18.13;;
37641;SDS011;23486;51.956;5.888;2023-11-22T12:00:19;31.23;;;17.98;;
37641;SDS011;23486;51.956;5.888;2023-11-22T12:02:45;30.25;;;18.25;;
37641;SDS011;23486;51.956;5.888;2023-11-22T12:05:11;32.65;;;17.73;;
37641;SDS011;23486;51.956;5.888;2023-11-22T12:07:38;32.53;;;18.50;;
37641;SDS011;23486;51.956;5.888;2023-11-22T12:10:04;28.08;;;16.45;;
37641;SDS011;23486;51.956;5.888;2023-11-22T12:12:34;26.60;;;15.38;;
37641;SDS011;23486;51.956;5.888;2023-11-22T12:15:00;30.83;;;16.27;;
37641;SDS011;23486;51.956;5.888;2023-11-22T12:17:26;27.58;;;15.73;;
37641;SDS011;23486;51.956;5.888;2023-11-22T12:19:53;29.25;;;16.48;;
37641;SDS011;23486;51.956;5.888;2023-11-22T12:22:20;31.42;;;17.17;;
37641;SDS011;23486;51.956;5.888;2023-11-22T12:24:46;34.90;;;19.10;;
37641;SDS011;23486;51.956;5.888;2023-11-22T12:27:12;35.67;;;19.10;;
37641;SDS011;23486;51.956;5.888;2023-11-22T12:29:39;39.85;;;21.70;;
37641;SDS011;23486;51.956;5.888;2023-11-22T12:32:06;38.83;;;20.02;;
37641;SDS011;23486;51.956;5.888;2023-11-22T12:34:33;32.42;;;18.63;;
37641;SDS011;23486;51.956;5.888;2023-11-22T12:36:59;37.05;;;20.30;;
37641;SDS011;23486;51.956;5.888;2023-11-22T12:39:24;31.05;;;18.38;;
37641;SDS011;23486;51.956;5.888;2023-11-22T12:41:51;34.47;;;18.70;;
37641;SDS011;23486;51.956;5.888;2023-11-22T12:44:18;31.80;;;19.13;;
37641;SDS011;23486;51.956;5.888;2023-11-22T12:49:11;37.35;;;19.40;;
37641;SDS011;23486;51.956;5.888;2023-11-22T12:51:38;35.22;;;17.80;;
37641;SDS011;23486;51.956;5.888;2023-11-22T12:54:04;34.90;;;18.02;;
37641;SDS011;23486;51.956;5.888;2023-11-22T12:56:31;37.88;;;20.48;;
37641;SDS011;23486;51.956;5.888;2023-11-22T12:58:58;38.60;;;19.90;;
37641;SDS011;23486;51.956;5.888;2023-11-22T13:01:24;39.65;;;21.27;;
37641;SDS011;23486;51.956;5.888;2023-11-22T13:03:50;38.75;;;20.42;;
37641;SDS011;23486;51.956;5.888;2023-11-22T13:06:16;34.35;;;19.40;;
37641;SDS011;23486;51.956;5.888;2023-11-22T13:08:43;34.78;;;18.80;;
37641;SDS011;23486;51.956;5.888;2023-11-22T13:11:11;39.40;;;20.70;;
37641;SDS011;23486;51.956;5.888;2023-11-22T13:13:37;37.45;;;19.60;;
37641;SDS011;23486;51.956;5.888;2023-11-22T13:16:04;33.45;;;18.55;;
37641;SDS011;23486;51.956;5.888;2023-11-22T13:18:30;32.33;;;17.33;;
37641;SDS011;23486;51.956;5.888;2023-11-22T13:20:56;34.00;;;18.67;;
37641;SDS011;23486;51.956;5.888;2023-11-22T13:23:22;33.72;;;19.52;;
37641;SDS011;23486;51.956;5.888;2023-11-22T13:25:48;34.65;;;18.55;;
37641;SDS011;23486;51.956;5.888;2023-11-22T13:28:14;32.05;;;17.65;;
37641;SDS011;23486;51.956;5.888;2023-11-22T13:30:40;34.70;;;18.15;;
37641;SDS011;23486;51.956;5.888;2023-11-22T13:33:06;34.47;;;17.60;;
37641;SDS011;23486;51.956;5.888;2023-11-22T13:35:32;30.35;;;16.65;;
37641;SDS011;23486;51.956;5.888;2023-11-22T13:38:02;35.88;;;18.77;;
37641;SDS011;23486;51.956;5.888;2023-11-22T13:40:32;33.13;;;18.67;;
37641;SDS011;23486;51.956;5.888;2023-11-22T13:42:58;35.45;;;18.88;;
37641;SDS011;23486;51.956;5.888;2023-11-22T13:45:24;40.72;;;20.98;;
37641;SDS011;23486;51.956;5.888;2023-11-22T13:47:51;37.50;;;18.13;;
37641;SDS011;23486;51.956;5.888;2023-11-22T13:50:20;35.88;;;19.63;;
37641;SDS011;23486;51.956;5.888;2023-11-22T13:52:51;36.92;;;19.50;;
37641;SDS011;23486;51.956;5.888;2023-11-22T13:55:18;40.60;;;20.20;;
37641;SDS011;23486;51.956;5.888;2023-11-22T13:57:48;38.63;;;20.20;;
37641;SDS011;23486;51.956;5.888;2023-11-22T14:00:15;39.97;;;20.05;;
37641;SDS011;23486;51.956;5.888;2023-11-22T14:02:46;40.92;;;20.67;;
37641;SDS011;23486;51.956;5.888;2023-11-22T14:05:12;38.53;;;20.20;;
37641;SDS011;23486;51.956;5.888;2023-11-22T14:07:40;44.75;;;22.02;;
37641;SDS011;23486;51.956;5.888;2023-11-22T14:10:07;40.95;;;20.90;;
37641;SDS011;23486;51.956;5.888;2023-11-22T14:12:34;45.67;;;22.85;;
37641;SDS011;23486;51.956;5.888;2023-11-22T14:15:00;48.85;;;23.67;;
37641;SDS011;23486;51.956;5.888;2023-11-22T14:17:29;46.60;;;23.83;;
37641;SDS011;23486;51.956;5.888;2023-11-22T14:19:55;52.83;;;24.65;;
37641;SDS011;23486;51.956;5.888;2023-11-22T14:22:21;51.25;;;24.30;;